createdAt,value
2023-07-07T00:00:54.483Z,98665.44
2023-07-07T00:01:56.016Z,98662.03
2023-07-07T00:02:57.488Z,98659.72
2023-07-07T00:03:59.256Z,98663.09
2023-07-07T00:05:00.737Z,98658.94
2023-07-07T00:06:02.753Z,98663.53
2023-07-07T00:07:05.981Z,98655.91
2023-07-07T00:08:07.889Z,98661.97
2023-07-07T00:09:09.712Z,98660.84
2023-07-07T00:10:11.135Z,98657.41
2023-07-07T00:11:12.564Z,98665.75
2023-07-07T00:12:15.207Z,98662.38
2023-07-07T00:13:16.683Z,98669.22
2023-07-07T00:14:18.200Z,98665.09
2023-07-07T00:15:19.872Z,98669.69
2023-07-07T00:16:24.291Z,98666.97
2023-07-07T00:17:26.299Z,98674.94
2023-07-07T00:18:29.802Z,98669.66
2023-07-07T00:19:35.066Z,98671.53
2023-07-07T00:20:36.642Z,98673.44
2023-07-07T00:21:38.877Z,98677.59
2023-07-07T00:22:41.455Z,98677.50
2023-07-07T00:23:43.373Z,98675.19
2023-07-07T00:24:44.833Z,98676.03
2023-07-07T00:25:46.546Z,98678.66
2023-07-07T00:26:47.992Z,98668.38
2023-07-07T00:27:49.954Z,98675.19
2023-07-07T00:28:52.495Z,98673.56
2023-07-07T00:29:54.270Z,98682.28
2023-07-07T00:30:55.942Z,98678.47
2023-07-07T00:31:58.772Z,98676.19
2023-07-07T00:33:00.227Z,98681.13
2023-07-07T00:34:02.187Z,98677.34
2023-07-07T00:35:04.413Z,98676.50
2023-07-07T00:36:06.091Z,98676.47
2023-07-07T00:37:07.559Z,98678.75
2023-07-07T00:38:09.011Z,98682.84
2023-07-07T00:39:11.013Z,98685.53
2023-07-07T00:40:13.096Z,98682.50
2023-07-07T00:41:15.975Z,98680.63
2023-07-07T00:42:17.401Z,98677.56
2023-07-07T00:43:20.654Z,98682.06
2023-07-07T00:44:25.458Z,98682.81
2023-07-07T00:45:26.890Z,98684.72
2023-07-07T00:46:28.972Z,98683.28
2023-07-07T00:47:30.555Z,98682.53
2023-07-07T00:48:38.418Z,98683.66
2023-07-07T00:49:39.877Z,98683.28
2023-07-07T00:50:58.307Z,98685.56
2023-07-07T00:52:14.398Z,98688.91
2023-07-07T00:53:16.020Z,98695.03
2023-07-07T00:54:29.925Z,98693.53
2023-07-07T00:55:37.120Z,98699.91
2023-07-07T00:56:43.552Z,98693.09
2023-07-07T00:57:45.745Z,98696.16
2023-07-07T00:58:47.919Z,98691.91
2023-07-07T00:59:52.655Z,98691.53
2023-07-07T01:01:00.855Z,98693.03
2023-07-07T01:02:07.793Z,98685.03
2023-07-07T01:03:21.069Z,98688.81
2023-07-07T01:04:23.819Z,98693.44
2023-07-07T01:05:30.263Z,98683.59
2023-07-07T01:06:37.562Z,98690.72
2023-07-07T01:07:44.005Z,98685.44
2023-07-07T01:08:51.868Z,98691.47
2023-07-07T01:09:54.111Z,98694.91
2023-07-07T01:10:55.760Z,98696.06
2023-07-07T01:11:57.887Z,98692.72
2023-07-07T01:13:00.385Z,98694.56
2023-07-07T01:15:09.522Z,98700.38
2023-07-07T01:16:32.984Z,98693.09
2023-07-07T01:18:15.664Z,98690.41
2023-07-07T01:19:26.083Z,98702.25
2023-07-07T01:20:35.283Z,98699.25
2023-07-07T01:21:55.466Z,98696.75
2023-07-07T01:23:07.294Z,98691.78
2023-07-07T01:24:42.670Z,98692.63
2023-07-07T01:26:15.806Z,98690.94
2023-07-07T01:27:54.541Z,98686.41
2023-07-07T01:29:17.409Z,98684.03
2023-07-07T01:30:21.553Z,98694.63
2023-07-07T01:31:34.054Z,98686.63
2023-07-07T01:32:37.289Z,98684.53
2023-07-07T01:33:39.217Z,98685.78
2023-07-07T01:34:41.182Z,98691.19
2023-07-07T01:35:43.132Z,98683.00
2023-07-07T01:36:44.649Z,98693.97
2023-07-07T01:37:57.865Z,98685.63
2023-07-07T01:38:59.335Z,98695.03
2023-07-07T01:40:02.001Z,98690.50
2023-07-07T01:41:16.826Z,98687.13
2023-07-07T01:42:53.500Z,98688.22
2023-07-07T01:44:42.525Z,98685.19
2023-07-07T01:46:08.580Z,98686.69
2023-07-07T01:47:37.515Z,98685.16
2023-07-07T01:48:50.997Z,98683.16
2023-07-07T01:50:03.024Z,98692.19
2023-07-07T01:51:09.464Z,98683.78
2023-07-07T01:52:17.631Z,98679.88
2023-07-07T01:53:23.971Z,98690.38
2023-07-07T01:54:29.064Z,98686.13
2023-07-07T01:55:37.895Z,98689.91
2023-07-07T01:56:40.507Z,98683.09
2023-07-07T01:57:44.417Z,98681.59
2023-07-07T01:58:46.968Z,98682.69
2023-07-07T01:59:48.822Z,98681.50
2023-07-07T02:00:53.248Z,98683.38
2023-07-07T02:01:56.811Z,98692.91
2023-07-07T02:03:00.244Z,98687.22
2023-07-07T02:04:01.765Z,98687.25
2023-07-07T02:05:03.469Z,98686.81
2023-07-07T02:06:05.068Z,98691.56
2023-07-07T02:07:06.845Z,98690.72
2023-07-07T02:08:08.594Z,98683.56
2023-07-07T02:09:10.230Z,98685.06
2023-07-07T02:10:12.329Z,98691.19
2023-07-07T02:11:13.823Z,98686.25
2023-07-07T02:12:15.318Z,98684.34
2023-07-07T02:13:16.888Z,98684.25
2023-07-07T02:14:18.352Z,98686.88
2023-07-07T02:15:19.898Z,98685.78
2023-07-07T02:16:21.379Z,98683.22
2023-07-07T02:17:23.089Z,98688.53
2023-07-07T02:18:27.580Z,98684.34
2023-07-07T02:19:29.230Z,98696.09
2023-07-07T02:20:31.734Z,98681.50
2023-07-07T02:21:33.194Z,98687.47
2023-07-07T02:22:35.105Z,98692.66
2023-07-07T02:23:36.583Z,98691.13
2023-07-07T02:24:38.092Z,98688.97
2023-07-07T02:25:39.533Z,98692.84
2023-07-07T02:26:41.016Z,98692.03
2023-07-07T02:27:42.497Z,98695.69
2023-07-07T02:28:43.931Z,98694.59
2023-07-07T02:29:45.434Z,98693.97
2023-07-07T02:30:47.189Z,98693.41
2023-07-07T02:31:48.700Z,98697.06
2023-07-07T02:32:51.236Z,98696.09
2023-07-07T02:33:53.747Z,98700.22
2023-07-07T02:34:58.148Z,98702.06
2023-07-07T02:36:06.444Z,98703.19
2023-07-07T02:37:13.931Z,98697.84
2023-07-07T02:38:16.318Z,98704.38
2023-07-07T02:39:17.755Z,98704.31
2023-07-07T02:40:19.234Z,98700.69
2023-07-07T02:41:21.750Z,98699.16
2023-07-07T02:42:23.331Z,98696.88
2023-07-07T02:43:25.373Z,98701.31
2023-07-07T02:44:27.420Z,98701.25
2023-07-07T02:45:28.857Z,98708.88
2023-07-07T02:46:30.382Z,98708.44
2023-07-07T02:47:32.002Z,98706.16
2023-07-07T02:48:33.478Z,98703.28
2023-07-07T02:49:34.999Z,98703.75
2023-07-07T02:50:36.564Z,98709.03
2023-07-07T02:51:38.132Z,98712.53
2023-07-07T02:52:39.797Z,98706.38
2023-07-07T02:53:41.255Z,98708.94
2023-07-07T02:54:42.730Z,98714.94
2023-07-07T02:55:46.316Z,98706.97
2023-07-07T02:56:47.851Z,98711.47
2023-07-07T02:57:49.325Z,98706.66
2023-07-07T02:58:51.283Z,98703.97
2023-07-07T02:59:52.973Z,98704.66
2023-07-07T03:00:54.940Z,98704.91
2023-07-07T03:01:56.504Z,98697.47
2023-07-07T03:02:58.075Z,98697.09
2023-07-07T03:04:00.236Z,98700.59
2023-07-07T03:05:01.859Z,98693.41
2023-07-07T03:06:05.578Z,98699.72
2023-07-07T03:07:07.215Z,98700.97
2023-07-07T03:08:08.732Z,98704.16
2023-07-07T03:09:10.852Z,98700.06
2023-07-07T03:10:12.389Z,98701.06
2023-07-07T03:11:17.121Z,98698.75
2023-07-07T03:12:18.550Z,98703.28
2023-07-07T03:13:20.249Z,98696.50
2023-07-07T03:14:22.945Z,98701.59
2023-07-07T03:15:25.094Z,98705.22
2023-07-07T03:16:31.714Z,98700.09
2023-07-07T03:17:33.452Z,98706.06
2023-07-07T03:18:35.116Z,98699.19
2023-07-07T03:19:36.538Z,98708.31
2023-07-07T03:20:41.223Z,98697.72
2023-07-07T03:21:42.660Z,98707.56
2023-07-07T03:22:44.109Z,98712.22
2023-07-07T03:23:45.752Z,98707.59
2023-07-07T03:24:47.826Z,98709.38
2023-07-07T03:25:49.246Z,98712.16
2023-07-07T03:26:50.788Z,98711.38
2023-07-07T03:27:52.372Z,98711.78
2023-07-07T03:28:55.479Z,98711.63
2023-07-07T03:29:57.626Z,98707.19
2023-07-07T03:30:59.438Z,98713.19
2023-07-07T03:32:01.082Z,98717.78
2023-07-07T03:33:02.605Z,98720.44
2023-07-07T03:34:07.199Z,98721.44
2023-07-07T03:35:08.827Z,98717.72
2023-07-07T03:36:12.312Z,98720.03
2023-07-07T03:37:14.379Z,98722.78
2023-07-07T03:38:15.843Z,98719.72
2023-07-07T03:39:17.290Z,98726.78
2023-07-07T03:40:18.886Z,98723.91
2023-07-07T03:41:22.592Z,98730.38
2023-07-07T03:42:24.050Z,98727.78
2023-07-07T03:43:25.584Z,98730.44
2023-07-07T03:44:27.236Z,98732.59
2023-07-07T03:45:28.690Z,98738.78
2023-07-07T03:46:31.124Z,98734.28
2023-07-07T03:47:32.619Z,98739.25
2023-07-07T03:48:34.120Z,98740.44
2023-07-07T03:49:35.591Z,98739.09
2023-07-07T03:50:37.085Z,98736.88
2023-07-07T03:51:39.067Z,98739.56
2023-07-07T03:52:40.536Z,98744.94
2023-07-07T03:53:43.095Z,98737.41
2023-07-07T03:54:45.011Z,98744.00
2023-07-07T03:55:46.454Z,98742.28
2023-07-07T03:56:48.406Z,98734.00
2023-07-07T03:57:50.343Z,98730.53
2023-07-07T03:58:51.862Z,98727.91
2023-07-07T03:59:53.838Z,98737.41
2023-07-07T04:00:55.576Z,98733.81
2023-07-07T04:01:57.697Z,98729.34
2023-07-07T04:02:59.794Z,98731.22
2023-07-07T04:04:01.519Z,98732.28
2023-07-07T04:05:03.235Z,98732.28
2023-07-07T04:06:04.802Z,98726.69
2023-07-07T04:07:06.428Z,98729.75
2023-07-07T04:08:07.882Z,98728.66
2023-07-07T04:09:09.408Z,98734.69
2023-07-07T04:10:11.170Z,98736.59
2023-07-07T04:11:21.433Z,98736.38
2023-07-07T04:12:22.887Z,98740.13
2023-07-07T04:13:24.395Z,98734.44
2023-07-07T04:14:30.048Z,98731.38
2023-07-07T04:15:32.146Z,98740.44
2023-07-07T04:16:33.678Z,98742.84
2023-07-07T04:17:35.270Z,98744.47
2023-07-07T04:18:38.087Z,98743.75
2023-07-07T04:19:39.536Z,98744.50
2023-07-07T04:20:40.996Z,98757.13
2023-07-07T04:21:42.494Z,98750.50
2023-07-07T04:22:43.942Z,98750.59
2023-07-07T04:23:48.433Z,98742.28
2023-07-07T04:25:14.773Z,98751.41
2023-07-07T04:26:17.448Z,98748.03
2023-07-07T04:27:18.897Z,98750.72
2023-07-07T04:28:20.356Z,98757.56
2023-07-07T04:29:21.860Z,98757.03
2023-07-07T04:30:23.285Z,98765.06
2023-07-07T04:31:25.754Z,98762.03
2023-07-07T04:32:27.272Z,98762.72
2023-07-07T04:33:29.454Z,98762.50
2023-07-07T04:34:31.733Z,98766.44
2023-07-07T04:35:36.995Z,98764.84
2023-07-07T04:36:38.805Z,98768.28
2023-07-07T04:37:40.287Z,98771.59
2023-07-07T04:38:42.511Z,98768.91
2023-07-07T04:39:44.455Z,98766.34
2023-07-07T04:40:46.748Z,98758.28
2023-07-07T04:41:50.635Z,98766.78
2023-07-07T04:42:52.129Z,98767.06
2023-07-07T04:43:55.926Z,98771.94
2023-07-07T04:44:57.371Z,98777.34
2023-07-07T04:45:59.453Z,98777.81
2023-07-07T04:47:00.971Z,98783.16
2023-07-07T04:48:02.491Z,98776.31
2023-07-07T04:49:09.230Z,98772.84
2023-07-07T04:50:10.987Z,98780.38
2023-07-07T04:51:13.612Z,98777.31
2023-07-07T04:52:15.078Z,98778.09
2023-07-07T04:53:16.834Z,98777.44
2023-07-07T04:54:18.262Z,98775.59
2023-07-07T04:55:19.765Z,98774.16
2023-07-07T04:56:23.011Z,98783.72
2023-07-07T04:57:24.495Z,98783.31
2023-07-07T04:58:27.220Z,98778.72
2023-07-07T04:59:29.112Z,98779.84
2023-07-07T05:00:30.552Z,98777.91
2023-07-07T05:01:32.979Z,98784.00
2023-07-07T05:02:36.610Z,98775.28
2023-07-07T05:03:41.201Z,98776.47
2023-07-07T05:04:42.686Z,98782.16
2023-07-07T05:05:44.697Z,98781.78
2023-07-07T05:06:46.150Z,98782.19
2023-07-07T05:07:47.578Z,98782.63
2023-07-07T05:08:49.108Z,98783.47
2023-07-07T05:09:51.097Z,98786.16
2023-07-07T05:10:52.541Z,98786.19
2023-07-07T05:11:54.050Z,98788.19
2023-07-07T05:12:55.552Z,98785.91
2023-07-07T05:13:57.961Z,98787.06
2023-07-07T05:14:59.633Z,98790.16
2023-07-07T05:16:04.130Z,98790.19
2023-07-07T05:17:05.752Z,98801.22
2023-07-07T05:18:08.553Z,98792.13
2023-07-07T05:19:10.837Z,98792.13
2023-07-07T05:20:12.643Z,98791.78
2023-07-07T05:21:15.869Z,98790.75
2023-07-07T05:22:17.478Z,98794.59
2023-07-07T05:23:18.967Z,98793.88
2023-07-07T05:24:20.485Z,98800.75
2023-07-07T05:25:21.973Z,98796.63
2023-07-07T05:26:28.316Z,98800.41
2023-07-07T05:27:29.821Z,98807.59
2023-07-07T05:28:32.062Z,98806.06
2023-07-07T05:29:33.504Z,98800.38
2023-07-07T05:30:34.963Z,98803.75
2023-07-07T05:31:37.048Z,98800.72
2023-07-07T05:32:38.595Z,98795.38
2023-07-07T05:33:40.872Z,98803.75
2023-07-07T05:34:42.404Z,98803.38
2023-07-07T05:35:47.495Z,98807.56
2023-07-07T05:36:48.960Z,98805.28
2023-07-07T05:37:50.419Z,98801.50
2023-07-07T05:38:52.532Z,98805.69
2023-07-07T05:39:54.194Z,98803.81
2023-07-07T05:40:57.116Z,98800.78
2023-07-07T05:41:59.086Z,98804.97
2023-07-07T05:43:00.514Z,98799.66
2023-07-07T05:44:02.483Z,98806.91
2023-07-07T05:45:04.098Z,98802.72
2023-07-07T05:46:13.850Z,98808.06
2023-07-07T05:47:15.444Z,98803.53
2023-07-07T05:48:16.897Z,98803.16
2023-07-07T05:49:18.404Z,98807.34
2023-07-07T05:50:20.416Z,98803.19
2023-07-07T05:51:21.988Z,98807.03
2023-07-07T05:52:23.736Z,98804.00
2023-07-07T05:53:25.711Z,98810.47
2023-07-07T05:54:27.218Z,98804.00
2023-07-07T05:55:31.886Z,98810.88
2023-07-07T05:56:33.393Z,98805.19
2023-07-07T05:57:34.871Z,98811.66
2023-07-07T05:58:37.568Z,98807.09
2023-07-07T05:59:39.056Z,98808.22
2023-07-07T06:00:41.496Z,98815.09
2023-07-07T06:01:43.223Z,98808.25
2023-07-07T06:02:44.769Z,98808.66
2023-07-07T06:03:47.186Z,98811.69
2023-07-07T06:04:48.759Z,98812.44
2023-07-07T06:05:50.193Z,98817.38
2023-07-07T06:06:52.103Z,98812.44
2023-07-07T06:07:55.158Z,98817.78
2023-07-07T06:08:57.268Z,98816.28
2023-07-07T06:09:59.309Z,98812.44
2023-07-07T06:11:01.597Z,98816.63
2023-07-07T06:12:03.322Z,98813.22
2023-07-07T06:13:04.804Z,98819.28
2023-07-07T06:14:06.775Z,98811.69
2023-07-07T06:15:09.039Z,98824.28
2023-07-07T06:16:10.713Z,98821.97
2023-07-07T06:17:12.254Z,98822.34
2023-07-07T06:18:14.313Z,98820.06
2023-07-07T06:19:15.965Z,98815.84
2023-07-07T06:20:17.497Z,98819.66
2023-07-07T06:21:19.231Z,98811.25
2023-07-07T06:22:20.962Z,98813.91
2023-07-07T06:23:23.440Z,98816.56
2023-07-07T06:24:24.967Z,98820.38
2023-07-07T06:25:26.888Z,98817.31
2023-07-07T06:26:28.623Z,98813.50
2023-07-07T06:27:30.719Z,98813.88
2023-07-07T06:28:32.281Z,98817.69
2023-07-07T06:29:36.906Z,98814.63
2023-07-07T06:30:38.451Z,98808.13
2023-07-07T06:31:40.539Z,98809.28
2023-07-07T06:32:42.126Z,98820.66
2023-07-07T06:33:43.712Z,98816.47
2023-07-07T06:34:45.406Z,98814.53
2023-07-07T06:35:47.678Z,98817.94
2023-07-07T06:36:49.212Z,98819.78
2023-07-07T06:37:51.283Z,98820.56
2023-07-07T06:38:52.785Z,98824.72
2023-07-07T06:39:54.288Z,98820.50
2023-07-07T06:40:55.850Z,98817.78
2023-07-07T06:41:57.960Z,98816.56
2023-07-07T06:42:59.968Z,98814.94
2023-07-07T06:44:01.402Z,98822.53
2023-07-07T06:45:03.152Z,98812.91
2023-07-07T06:46:04.840Z,98816.56
2023-07-07T06:47:06.938Z,98819.03
2023-07-07T06:48:09.546Z,98815.56
2023-07-07T06:49:11.066Z,98817.19
2023-07-07T06:50:27.508Z,98814.22
2023-07-07T06:51:29.122Z,98827.84
2023-07-07T06:52:30.593Z,98823.66
2023-07-07T06:53:32.460Z,98823.81
2023-07-07T06:54:34.071Z,98826.72
2023-07-07T06:55:35.616Z,98820.66
2023-07-07T06:56:37.422Z,98823.38
2023-07-07T06:57:38.943Z,98823.75
2023-07-07T06:58:40.450Z,98817.28
2023-07-07T06:59:41.988Z,98818.88
2023-07-07T07:00:44.513Z,98819.69
2023-07-07T07:01:46.222Z,98821.28
2023-07-07T07:02:48.679Z,98821.53
2023-07-07T07:03:50.163Z,98830.84
2023-07-07T07:04:51.724Z,98824.97
2023-07-07T07:05:53.203Z,98827.19
2023-07-07T07:06:54.764Z,98826.84
2023-07-07T07:07:56.255Z,98828.13
2023-07-07T07:08:57.722Z,98828.13
2023-07-07T07:09:59.590Z,98825.88
2023-07-07T07:11:01.316Z,98825.44
2023-07-07T07:12:02.881Z,98827.66
2023-07-07T07:13:04.518Z,98830.59
2023-07-07T07:14:06.123Z,98828.59
2023-07-07T07:15:11.007Z,98825.34
2023-07-07T07:16:12.722Z,98824.81
2023-07-07T07:17:14.238Z,98825.56
2023-07-07T07:18:15.871Z,98827.38
2023-07-07T07:19:17.422Z,98832.13
2023-07-07T07:20:19.103Z,98828.44
2023-07-07T07:21:21.083Z,98827.03
2023-07-07T07:22:22.600Z,98823.38
2023-07-07T07:23:24.663Z,98823.94
2023-07-07T07:24:26.457Z,98827.81
2023-07-07T07:25:27.949Z,98826.88
2023-07-07T07:26:29.505Z,98826.75
2023-07-07T07:27:31.012Z,98822.44
2023-07-07T07:28:33.002Z,98826.22
2023-07-07T07:29:34.607Z,98828.22
2023-07-07T07:30:36.704Z,98829.97
2023-07-07T07:31:38.346Z,98823.38
2023-07-07T07:32:40.740Z,98826.75
2023-07-07T07:33:42.291Z,98834.06
2023-07-07T07:34:43.878Z,98828.47
2023-07-07T07:35:45.935Z,98830.84
2023-07-07T07:36:47.496Z,98826.84
2023-07-07T07:37:49.003Z,98831.72
2023-07-07T07:38:50.578Z,98823.75
2023-07-07T07:39:53.285Z,98818.84
2023-07-07T07:40:57.660Z,98829.00
2023-07-07T07:41:59.445Z,98825.28
2023-07-07T07:43:01.175Z,98834.84
2023-07-07T07:44:03.208Z,98827.09
2023-07-07T07:45:05.144Z,98836.25
2023-07-07T07:46:06.878Z,98825.69
2023-07-07T07:47:08.678Z,98830.81
2023-07-07T07:48:10.267Z,98824.97
2023-07-07T07:49:12.152Z,98825.94
2023-07-07T07:50:16.190Z,98825.69
2023-07-07T07:52:25.681Z,98822.34
2023-07-07T07:53:27.145Z,98828.28
2023-07-07T07:54:28.688Z,98828.06
2023-07-07T07:55:30.711Z,98830.66
2023-07-07T07:56:32.269Z,98835.16
2023-07-07T07:57:33.821Z,98840.22
2023-07-07T07:58:35.330Z,98840.75
2023-07-07T07:59:37.388Z,98844.63
2023-07-07T08:00:38.936Z,98838.75
2023-07-07T08:01:41.019Z,98841.50
2023-07-07T08:02:42.678Z,98840.63
2023-07-07T08:03:44.213Z,98846.47
2023-07-07T08:04:45.823Z,98842.81
2023-07-07T08:05:47.275Z,98838.53
2023-07-07T08:06:53.395Z,98837.25
2023-07-07T08:07:54.850Z,98829.78
2023-07-07T08:08:56.613Z,98835.66
2023-07-07T08:09:58.346Z,98839.72
2023-07-07T08:11:09.820Z,98834.84
2023-07-07T08:12:12.764Z,98837.03
2023-07-07T08:13:15.621Z,98836.72
2023-07-07T08:14:22.599Z,98837.19
2023-07-07T08:15:24.237Z,98833.81
2023-07-07T08:16:25.820Z,98835.72
2023-07-07T08:17:28.035Z,98833.50
2023-07-07T08:18:29.664Z,98831.00
2023-07-07T08:19:33.118Z,98830.72
2023-07-07T08:20:35.184Z,98831.72
2023-07-07T08:21:37.289Z,98837.91
2023-07-07T08:22:38.801Z,98837.63
2023-07-07T08:23:40.317Z,98838.59
2023-07-07T08:24:44.788Z,98836.28
2023-07-07T08:26:26.113Z,98832.94
2023-07-07T08:28:15.720Z,98835.22
2023-07-07T08:30:22.163Z,98835.56
2023-07-07T08:31:23.745Z,98833.72
2023-07-07T08:32:25.669Z,98839.94
2023-07-07T08:33:27.218Z,98838.03
2023-07-07T08:34:35.043Z,98849.22
2023-07-07T08:35:40.198Z,98841.94
2023-07-07T08:36:41.753Z,98844.53
2023-07-07T08:37:43.193Z,98844.19
2023-07-07T08:38:44.735Z,98844.94
2023-07-07T08:39:46.275Z,98839.41
2023-07-07T08:40:53.038Z,98844.81
2023-07-07T08:41:59.328Z,98842.28
2023-07-07T08:43:00.777Z,98831.41
2023-07-07T08:44:02.582Z,98837.03
2023-07-07T08:45:11.917Z,98832.75
2023-07-07T08:46:17.887Z,98837.44
2023-07-07T08:47:40.571Z,98838.38
2023-07-07T08:48:54.405Z,98834.84
2023-07-07T08:50:29.816Z,98836.34
2023-07-07T08:51:37.978Z,98836.63
2023-07-07T08:52:51.508Z,98838.59
2023-07-07T08:55:34.316Z,98837.00
2023-07-07T08:56:52.423Z,98836.31
2023-07-07T08:58:13.264Z,98841.22
2023-07-07T09:00:06.697Z,98834.69
2023-07-07T09:01:23.254Z,98834.06
2023-07-07T09:02:45.012Z,98835.78
2023-07-07T09:04:06.925Z,98833.97
2023-07-07T09:05:38.971Z,98832.03
2023-07-07T09:06:53.216Z,98827.50
2023-07-07T09:08:19.431Z,98835.47
2023-07-07T09:10:01.225Z,98828.28
2023-07-07T09:11:43.152Z,98826.03
2023-07-07T09:12:50.188Z,98826.19
2023-07-07T09:13:55.320Z,98827.22
2023-07-07T09:15:00.345Z,98824.78
2023-07-07T09:16:20.234Z,98822.81
2023-07-07T09:17:31.051Z,98827.34
2023-07-07T09:18:47.238Z,98828.84
2023-07-07T09:19:51.134Z,98829.00
2023-07-07T09:20:57.257Z,98832.63
2023-07-07T09:22:27.530Z,98818.97
2023-07-07T09:23:37.518Z,98824.97
2023-07-07T09:24:48.796Z,98821.50
2023-07-07T09:26:06.118Z,98830.84
2023-07-07T09:27:16.139Z,98829.63
2023-07-07T09:28:19.119Z,98823.16
2023-07-07T09:29:32.063Z,98826.31
2023-07-07T09:30:40.227Z,98827.81
2023-07-07T09:31:43.700Z,98831.28
2023-07-07T09:32:45.398Z,98824.22
2023-07-07T09:33:47.212Z,98824.34
2023-07-07T09:34:49.030Z,98818.47
2023-07-07T09:36:12.424Z,98815.09
2023-07-07T09:37:38.617Z,98817.69
2023-07-07T09:39:18.039Z,98811.22
2023-07-07T09:40:22.730Z,98811.13
2023-07-07T09:41:48.729Z,98812.91
2023-07-07T09:42:50.262Z,98811.28
2023-07-07T09:44:10.694Z,98810.69
2023-07-07T09:45:33.896Z,98820.91
2023-07-07T09:46:49.891Z,98816.25
2023-07-07T09:48:06.603Z,98815.34
2023-07-07T09:49:22.507Z,98814.44
2023-07-07T09:50:37.321Z,98809.00
2023-07-07T09:51:51.953Z,98814.41
2023-07-07T09:52:55.816Z,98819.31
2023-07-07T09:53:57.734Z,98817.84
2023-07-07T09:55:01.201Z,98816.38
2023-07-07T09:56:03.984Z,98807.97
2023-07-07T09:57:12.895Z,98804.03
2023-07-07T09:58:58.730Z,98803.97
2023-07-07T10:00:02.442Z,98809.56
2023-07-07T10:01:05.352Z,98802.44
2023-07-07T10:02:17.928Z,98803.34
2023-07-07T10:03:29.940Z,98810.78
2023-07-07T10:04:32.269Z,98804.94
2023-07-07T10:05:36.102Z,98810.78
2023-07-07T10:06:42.792Z,98807.47
2023-07-07T10:07:44.459Z,98803.41
2023-07-07T10:08:45.940Z,98805.75
2023-07-07T10:09:47.724Z,98817.31
2023-07-07T10:11:12.524Z,98817.03
2023-07-07T10:12:27.847Z,98816.19
2023-07-07T10:13:33.506Z,98813.44
2023-07-07T10:14:36.111Z,98813.44
2023-07-07T10:16:00.553Z,98816.41
2023-07-07T10:17:11.407Z,98813.53
2023-07-07T10:18:22.195Z,98817.31
2023-07-07T10:19:26.146Z,98801.31
2023-07-07T10:20:27.590Z,98799.41
2023-07-07T10:21:29.240Z,98801.88
2023-07-07T10:22:31.020Z,98806.75
2023-07-07T10:23:32.457Z,98805.59
2023-07-07T10:24:34.323Z,98800.53
2023-07-07T10:25:35.849Z,98802.97
2023-07-07T10:26:40.166Z,98805.09
2023-07-07T10:27:52.684Z,98802.59
2023-07-07T10:28:58.924Z,98807.81
2023-07-07T10:30:05.714Z,98804.53
2023-07-07T10:31:07.271Z,98803.53
2023-07-07T10:32:22.328Z,98809.97
2023-07-07T10:33:23.815Z,98806.91
2023-07-07T10:34:38.581Z,98807.88
2023-07-07T10:35:40.703Z,98801.03
2023-07-07T10:36:43.333Z,98802.38
2023-07-07T10:37:46.177Z,98806.94
2023-07-07T10:38:55.867Z,98805.25
2023-07-07T10:40:00.531Z,98805.63
2023-07-07T10:41:02.599Z,98807.03
2023-07-07T10:42:04.279Z,98804.59
2023-07-07T10:43:07.037Z,98809.53
2023-07-07T10:44:09.120Z,98797.91
2023-07-07T10:45:12.264Z,98811.31
2023-07-07T10:46:13.973Z,98809.13
2023-07-07T10:47:23.510Z,98814.69
2023-07-07T10:48:25.507Z,98808.25
2023-07-07T10:49:28.065Z,98812.25
2023-07-07T10:50:39.789Z,98805.59
2023-07-07T10:51:47.453Z,98804.78
2023-07-07T10:54:34.837Z,98804.91
2023-07-07T10:55:45.562Z,98799.13
2023-07-07T10:56:50.166Z,98797.81
2023-07-07T10:58:07.124Z,98794.00
2023-07-07T10:59:34.898Z,98799.91
2023-07-07T11:01:03.217Z,98807.78
2023-07-07T11:02:53.676Z,98809.44
2023-07-07T11:04:05.470Z,98796.56
2023-07-07T11:05:08.586Z,98800.69
2023-07-07T11:06:36.066Z,98792.00
2023-07-07T11:07:54.456Z,98796.53
2023-07-07T11:08:55.923Z,98794.03
2023-07-07T11:10:30.305Z,98799.28
2023-07-07T11:11:45.448Z,98793.09
2023-07-07T11:12:58.780Z,98782.22
2023-07-07T11:14:11.759Z,98789.19
2023-07-07T11:15:43.271Z,98785.84
2023-07-07T11:17:10.165Z,98781.94
2023-07-07T11:18:26.629Z,98782.22
2023-07-07T11:19:34.303Z,98784.34
2023-07-07T11:20:50.619Z,98787.47
2023-07-07T11:22:26.928Z,98780.81
2023-07-07T11:24:02.807Z,98777.22
2023-07-07T11:25:35.194Z,98780.81
2023-07-07T11:26:50.797Z,98777.53
2023-07-07T11:28:22.271Z,98780.44
2023-07-07T11:29:31.609Z,98778.47
2023-07-07T11:31:18.652Z,98777.38
2023-07-07T11:32:26.308Z,98768.81
2023-07-07T11:33:49.024Z,98770.56
2023-07-07T11:35:05.972Z,98773.72
2023-07-07T11:36:32.441Z,98770.09
2023-07-07T11:37:59.666Z,98763.66
2023-07-07T11:39:33.951Z,98769.56
2023-07-07T11:40:47.368Z,98762.94
2023-07-07T11:42:00.907Z,98763.66
2023-07-07T11:43:19.762Z,98766.38
2023-07-07T11:44:44.733Z,98763.22
2023-07-07T11:46:20.129Z,98757.63
2023-07-07T11:47:43.658Z,98756.88
2023-07-07T11:49:08.336Z,98754.31
2023-07-07T11:51:06.883Z,98748.34
2023-07-07T11:52:42.353Z,98752.28
2023-07-07T11:54:05.606Z,98746.91
2023-07-07T11:55:22.916Z,98757.78
2023-07-07T11:56:44.568Z,98750.63
2023-07-07T11:57:46.836Z,98742.41
2023-07-07T11:59:10.039Z,98745.66
2023-07-07T12:00:48.241Z,98743.38
2023-07-07T12:01:53.203Z,98741.41
2023-07-07T12:03:03.707Z,98747.03
2023-07-07T12:04:26.465Z,98742.44
2023-07-07T12:05:33.953Z,98740.53
2023-07-07T12:06:46.785Z,98740.16
2023-07-07T12:07:58.101Z,98737.44
2023-07-07T12:09:05.642Z,98739.22
2023-07-07T12:10:32.851Z,98739.06
2023-07-07T12:11:39.514Z,98736.16
2023-07-07T12:12:54.371Z,98734.88
2023-07-07T12:14:20.487Z,98736.81
2023-07-07T12:15:31.663Z,98733.00
2023-07-07T12:16:35.775Z,98737.13
2023-07-07T12:17:41.331Z,98738.25
2023-07-07T12:18:47.623Z,98733.97
2023-07-07T12:19:55.951Z,98733.84
2023-07-07T12:21:07.240Z,98729.03
2023-07-07T12:22:19.166Z,98723.75
2023-07-07T12:23:30.543Z,98721.31
2023-07-07T12:25:02.452Z,98722.09
2023-07-07T12:26:26.675Z,98718.50
2023-07-07T12:27:35.298Z,98718.75
2023-07-07T12:28:37.277Z,98720.75
2023-07-07T12:29:44.879Z,98715.34
2023-07-07T12:30:49.301Z,98727.28
2023-07-07T12:31:51.305Z,98727.97
2023-07-07T12:32:53.840Z,98718.53
2023-07-07T12:33:56.506Z,98717.91
2023-07-07T12:35:08.217Z,98721.88
2023-07-07T12:36:14.451Z,98722.16
2023-07-07T12:37:19.231Z,98719.97
2023-07-07T12:38:34.783Z,98722.53
2023-07-07T12:39:38.411Z,98717.19
2023-07-07T12:40:44.706Z,98715.19
2023-07-07T12:41:46.176Z,98720.81
2023-07-07T12:42:58.583Z,98713.63
2023-07-07T12:44:04.585Z,98716.53
2023-07-07T12:45:31.429Z,98719.19
2023-07-07T12:46:36.230Z,98719.16
2023-07-07T12:47:42.662Z,98713.78
2023-07-07T12:48:49.306Z,98714.91
2023-07-07T12:50:00.364Z,98719.66
2023-07-07T12:51:09.184Z,98711.34
2023-07-07T12:52:11.980Z,98717.44
2023-07-07T12:53:23.869Z,98714.19
2023-07-07T12:54:36.857Z,98716.59
2023-07-07T12:55:40.519Z,98711.47
2023-07-07T12:57:23.174Z,98710.38
2023-07-07T12:58:31.903Z,98713.34
2023-07-07T12:59:38.749Z,98708.06
2023-07-07T13:00:42.034Z,98698.91
2023-07-07T13:01:43.834Z,98710.59
2023-07-07T13:03:22.192Z,98705.69
2023-07-07T13:04:40.752Z,98707.72
2023-07-07T13:05:51.044Z,98707.72
2023-07-07T13:06:52.446Z,98704.06
2023-07-07T13:08:02.937Z,98703.16
2023-07-07T13:09:13.438Z,98705.88